sensor_id;sensor_type;location;lat;lon;timestamp;P1;durP1;ratioP1;P2;durP2;ratioP2
1366;SDS011;16877;48.810;9.282;2024-03-02T00:00:38;10.70;;;9.40;;
1366;SDS011;16877;48.810;9.282;2024-03-02T00:03:05;9.47;;;8.50;;
1366;SDS011;16877;48.810;9.282;2024-03-02T00:05:36;9.70;;;8.70;;
1366;SDS011;16877;48.810;9.282;2024-03-02T00:08:03;8.20;;;7.40;;
1366;SDS011;16877;48.810;9.282;2024-03-02T00:10:34;7.90;;;7.10;;
1366;SDS011;16877;48.810;9.282;2024-03-02T00:13:04;10.03;;;9.03;;
1366;SDS011;16877;48.810;9.282;2024-03-02T00:15:37;10.67;;;8.77;;
1366;SDS011;16877;48.810;9.282;2024-03-02T00:18:07;9.83;;;8.60;;
1366;SDS011;16877;48.810;9.282;2024-03-02T00:20:37;9.57;;;7.83;;
1366;SDS011;16877;48.810;9.282;2024-03-02T00:23:04;9.60;;;7.70;;
1366;SDS011;16877;48.810;9.282;2024-03-02T00:25:39;9.20;;;8.30;;
1366;SDS011;16877;48.810;9.282;2024-03-02T00:28:11;8.83;;;7.90;;
1366;SDS011;16877;48.810;9.282;2024-03-02T00:30:52;9.27;;;8.30;;
1366;SDS011;16877;48.810;9.282;2024-03-02T00:33:22;8.53;;;7.73;;
1366;SDS011;16877;48.810;9.282;2024-03-02T00:35:51;8.33;;;7.50;;
1366;SDS011;16877;48.810;9.282;2024-03-02T00:38:18;8.30;;;7.43;;
1366;SDS011;16877;48.810;9.282;2024-03-02T00:40:45;8.27;;;7.47;;
1366;SDS011;16877;48.810;9.282;2024-03-02T00:43:19;9.20;;;8.27;;
1366;SDS011;16877;48.810;9.282;2024-03-02T00:46:08;9.33;;;8.40;;
1366;SDS011;16877;48.810;9.282;2024-03-02T00:48:36;8.70;;;7.80;;
1366;SDS011;16877;48.810;9.282;2024-03-02T00:51:05;10.03;;;8.87;;
1366;SDS011;16877;48.810;9.282;2024-03-02T00:53:31;9.57;;;8.67;;
1366;SDS011;16877;48.810;9.282;2024-03-02T00:55:58;9.23;;;8.33;;
1366;SDS011;16877;48.810;9.282;2024-03-02T00:58:25;8.80;;;7.50;;
1366;SDS011;16877;48.810;9.282;2024-03-02T01:00:52;9.33;;;7.90;;
1366;SDS011;16877;48.810;9.282;2024-03-02T01:03:19;10.47;;;8.40;;
1366;SDS011;16877;48.810;9.282;2024-03-02T01:05:45;9.53;;;8.57;;
1366;SDS011;16877;48.810;9.282;2024-03-02T01:08:13;9.50;;;8.60;;
1366;SDS011;16877;48.810;9.282;2024-03-02T01:10:40;9.20;;;7.30;;
1366;SDS011;16877;48.810;9.282;2024-03-02T01:13:07;10.20;;;8.97;;
1366;SDS011;16877;48.810;9.282;2024-03-02T01:15:34;8.80;;;7.83;;
1366;SDS011;16877;48.810;9.282;2024-03-02T01:18:01;8.87;;;7.97;;
1366;SDS011;16877;48.810;9.282;2024-03-02T01:20:28;9.40;;;8.40;;
1366;SDS011;16877;48.810;9.282;2024-03-02T01:22:54;8.97;;;8.07;;
1366;SDS011;16877;48.810;9.282;2024-03-02T01:25:22;10.00;;;9.00;;
1366;SDS011;16877;48.810;9.282;2024-03-02T01:27:50;9.43;;;8.20;;
1366;SDS011;16877;48.810;9.282;2024-03-02T01:30:16;10.10;;;8.40;;
1366;SDS011;16877;48.810;9.282;2024-03-02T01:32:43;8.77;;;7.33;;
1366;SDS011;16877;48.810;9.282;2024-03-02T01:35:10;10.80;;;9.70;;
1366;SDS011;16877;48.810;9.282;2024-03-02T01:37:36;10.33;;;8.40;;
1366;SDS011;16877;48.810;9.282;2024-03-02T01:40:03;9.70;;;8.80;;
1366;SDS011;16877;48.810;9.282;2024-03-02T01:42:35;8.77;;;7.87;;
1366;SDS011;16877;48.810;9.282;2024-03-02T01:45:03;8.80;;;7.90;;
1366;SDS011;16877;48.810;9.282;2024-03-02T01:47:30;9.57;;;8.30;;
1366;SDS011;16877;48.810;9.282;2024-03-02T01:49:58;8.70;;;7.80;;
1366;SDS011;16877;48.810;9.282;2024-03-02T01:52:25;8.90;;;8.10;;
1366;SDS011;16877;48.810;9.282;2024-03-02T01:54:52;8.67;;;7.77;;
1366;SDS011;16877;48.810;9.282;2024-03-02T01:57:19;8.77;;;7.90;;
1366;SDS011;16877;48.810;9.282;2024-03-02T01:59:47;8.33;;;7.47;;
1366;SDS011;16877;48.810;9.282;2024-03-02T02:02:15;8.10;;;7.30;;
1366;SDS011;16877;48.810;9.282;2024-03-02T02:04:42;8.60;;;7.70;;
1366;SDS011;16877;48.810;9.282;2024-03-02T02:07:09;8.80;;;8.00;;
1366;SDS011;16877;48.810;9.282;2024-03-02T02:09:36;9.03;;;7.90;;
1366;SDS011;16877;48.810;9.282;2024-03-02T02:12:03;8.70;;;7.80;;
1366;SDS011;16877;48.810;9.282;2024-03-02T02:14:31;9.80;;;8.40;;
1366;SDS011;16877;48.810;9.282;2024-03-02T02:16:59;8.50;;;7.60;;
1366;SDS011;16877;48.810;9.282;2024-03-02T02:19:26;9.43;;;7.57;;
1366;SDS011;16877;48.810;9.282;2024-03-02T02:21:54;9.13;;;7.90;;
1366;SDS011;16877;48.810;9.282;2024-03-02T02:24:21;8.70;;;7.70;;
1366;SDS011;16877;48.810;9.282;2024-03-02T02:26:48;8.27;;;7.47;;
1366;SDS011;16877;48.810;9.282;2024-03-02T02:29:14;8.80;;;7.77;;
1366;SDS011;16877;48.810;9.282;2024-03-02T02:31:41;8.47;;;7.57;;
1366;SDS011;16877;48.810;9.282;2024-03-02T02:34:08;9.77;;;8.77;;
1366;SDS011;16877;48.810;9.282;2024-03-02T02:36:36;8.63;;;7.73;;
1366;SDS011;16877;48.810;9.282;2024-03-02T02:39:06;9.10;;;8.20;;
1366;SDS011;16877;48.810;9.282;2024-03-02T02:41:37;9.87;;;8.23;;
1366;SDS011;16877;48.810;9.282;2024-03-02T02:44:03;10.13;;;8.80;;
1366;SDS011;16877;48.810;9.282;2024-03-02T02:46:30;8.73;;;7.83;;
1366;SDS011;16877;48.810;9.282;2024-03-02T02:48:57;11.43;;;10.33;;
1366;SDS011;16877;48.810;9.282;2024-03-02T02:51:24;9.97;;;8.90;;
1366;SDS011;16877;48.810;9.282;2024-03-02T02:53:51;11.43;;;8.20;;
1366;SDS011;16877;48.810;9.282;2024-03-02T02:56:19;10.60;;;9.60;;
1366;SDS011;16877;48.810;9.282;2024-03-02T02:58:46;10.53;;;9.33;;
1366;SDS011;16877;48.810;9.282;2024-03-02T03:01:12;11.20;;;10.00;;
1366;SDS011;16877;48.810;9.282;2024-03-02T03:03:39;10.87;;;9.80;;
1366;SDS011;16877;48.810;9.282;2024-03-02T03:06:06;10.70;;;9.70;;
1366;SDS011;16877;48.810;9.282;2024-03-02T03:08:32;11.60;;;10.43;;
1366;SDS011;16877;48.810;9.282;2024-03-02T03:10:59;9.63;;;8.63;;
1366;SDS011;16877;48.810;9.282;2024-03-02T03:13:27;10.47;;;9.50;;
1366;SDS011;16877;48.810;9.282;2024-03-02T03:15:54;10.87;;;9.50;;
1366;SDS011;16877;48.810;9.282;2024-03-02T03:18:21;12.13;;;10.30;;
1366;SDS011;16877;48.810;9.282;2024-03-02T03:20:48;11.00;;;9.90;;
1366;SDS011;16877;48.810;9.282;2024-03-02T03:23:15;11.63;;;10.13;;
1366;SDS011;16877;48.810;9.282;2024-03-02T03:25:42;11.47;;;10.30;;
1366;SDS011;16877;48.810;9.282;2024-03-02T03:28:08;10.93;;;9.80;;
1366;SDS011;16877;48.810;9.282;2024-03-02T03:30:37;10.00;;;9.00;;
1366;SDS011;16877;48.810;9.282;2024-03-02T03:33:04;11.13;;;10.00;;
1366;SDS011;16877;48.810;9.282;2024-03-02T03:35:31;10.60;;;9.50;;
1366;SDS011;16877;48.810;9.282;2024-03-02T03:37:58;9.63;;;8.67;;
1366;SDS011;16877;48.810;9.282;2024-03-02T03:40:25;10.57;;;9.47;;
1366;SDS011;16877;48.810;9.282;2024-03-02T03:42:51;10.67;;;9.57;;
1366;SDS011;16877;48.810;9.282;2024-03-02T03:45:18;8.83;;;7.77;;
1366;SDS011;16877;48.810;9.282;2024-03-02T03:47:47;9.50;;;8.60;;
1366;SDS011;16877;48.810;9.282;2024-03-02T03:50:14;9.73;;;8.77;;
1366;SDS011;16877;48.810;9.282;2024-03-02T03:52:41;9.00;;;8.00;;
1366;SDS011;16877;48.810;9.282;2024-03-02T03:55:08;8.60;;;7.73;;
1366;SDS011;16877;48.810;9.282;2024-03-02T03:57:35;8.57;;;7.77;;
1366;SDS011;16877;48.810;9.282;2024-03-02T04:00:02;9.30;;;8.40;;
1366;SDS011;16877;48.810;9.282;2024-03-02T04:02:29;9.47;;;8.03;;
1366;SDS011;16877;48.810;9.282;2024-03-02T04:04:57;9.20;;;8.20;;
1366;SDS011;16877;48.810;9.282;2024-03-02T04:07:24;8.87;;;7.97;;
1366;SDS011;16877;48.810;9.282;2024-03-02T04:09:50;8.30;;;7.50;;
1366;SDS011;16877;48.810;9.282;2024-03-02T04:12:17;8.40;;;6.93;;
1366;SDS011;16877;48.810;9.282;2024-03-02T04:14:44;9.17;;;8.27;;
1366;SDS011;16877;48.810;9.282;2024-03-02T04:17:10;8.67;;;7.50;;
1366;SDS011;16877;48.810;9.282;2024-03-02T04:19:38;8.30;;;7.40;;
1366;SDS011;16877;48.810;9.282;2024-03-02T04:22:06;9.80;;;8.80;;
1366;SDS011;16877;48.810;9.282;2024-03-02T04:24:33;8.43;;;7.63;;
1366;SDS011;16877;48.810;9.282;2024-03-02T04:26:59;9.13;;;7.77;;
1366;SDS011;16877;48.810;9.282;2024-03-02T04:29:25;9.57;;;8.57;;
1366;SDS011;16877;48.810;9.282;2024-03-02T04:31:51;9.73;;;8.67;;
1366;SDS011;16877;48.810;9.282;2024-03-02T04:34:18;10.30;;;9.27;;
1366;SDS011;16877;48.810;9.282;2024-03-02T04:36:45;8.30;;;7.47;;
1366;SDS011;16877;48.810;9.282;2024-03-02T04:39:13;10.03;;;9.03;;
1366;SDS011;16877;48.810;9.282;2024-03-02T04:41:39;10.57;;;9.20;;
1366;SDS011;16877;48.810;9.282;2024-03-02T04:44:06;10.07;;;9.07;;
1366;SDS011;16877;48.810;9.282;2024-03-02T04:46:33;11.30;;;8.37;;
1366;SDS011;16877;48.810;9.282;2024-03-02T04:49:00;9.20;;;7.70;;
1366;SDS011;16877;48.810;9.282;2024-03-02T04:51:26;10.27;;;8.80;;
1366;SDS011;16877;48.810;9.282;2024-03-02T04:53:53;9.80;;;8.47;;
1366;SDS011;16877;48.810;9.282;2024-03-02T04:56:21;9.30;;;8.33;;
1366;SDS011;16877;48.810;9.282;2024-03-02T04:59:09;10.60;;;9.50;;
1366;SDS011;16877;48.810;9.282;2024-03-02T05:01:36;9.53;;;8.63;;
1366;SDS011;16877;48.810;9.282;2024-03-02T05:04:03;10.10;;;8.50;;
1366;SDS011;16877;48.810;9.282;2024-03-02T05:06:30;8.30;;;7.50;;
1366;SDS011;16877;48.810;9.282;2024-03-02T05:08:56;9.53;;;8.57;;
1366;SDS011;16877;48.810;9.282;2024-03-02T05:11:24;9.07;;;8.17;;
1366;SDS011;16877;48.810;9.282;2024-03-02T05:14:09;9.93;;;8.70;;
1366;SDS011;16877;48.810;9.282;2024-03-02T05:16:35;10.23;;;8.97;;
1366;SDS011;16877;48.810;9.282;2024-03-02T05:19:03;11.10;;;9.67;;
1366;SDS011;16877;48.810;9.282;2024-03-02T05:21:31;10.37;;;9.30;;
1366;SDS011;16877;48.810;9.282;2024-03-02T05:23:58;9.60;;;8.60;;
1366;SDS011;16877;48.810;9.282;2024-03-02T05:26:26;9.40;;;8.50;;
1366;SDS011;16877;48.810;9.282;2024-03-02T05:28:53;11.63;;;10.27;;
1366;SDS011;16877;48.810;9.282;2024-03-02T05:31:19;10.03;;;8.67;;
1366;SDS011;16877;48.810;9.282;2024-03-02T05:33:46;9.87;;;8.87;;
1366;SDS011;16877;48.810;9.282;2024-03-02T05:36:13;9.43;;;8.40;;
1366;SDS011;16877;48.810;9.282;2024-03-02T05:38:39;12.93;;;9.53;;
1366;SDS011;16877;48.810;9.282;2024-03-02T05:41:06;10.33;;;9.30;;
1366;SDS011;16877;48.810;9.282;2024-03-02T05:43:34;11.67;;;9.43;;
1366;SDS011;16877;48.810;9.282;2024-03-02T05:46:01;12.13;;;10.30;;
1366;SDS011;16877;48.810;9.282;2024-03-02T05:48:28;10.37;;;9.27;;
1366;SDS011;16877;48.810;9.282;2024-03-02T05:50:55;10.50;;;9.40;;
1366;SDS011;16877;48.810;9.282;2024-03-02T05:53:21;10.60;;;9.50;;
1366;SDS011;16877;48.810;9.282;2024-03-02T05:55:48;9.67;;;8.70;;
1366;SDS011;16877;48.810;9.282;2024-03-02T05:58:18;9.93;;;8.93;;
1366;SDS011;16877;48.810;9.282;2024-03-02T06:00:57;10.13;;;9.13;;
1366;SDS011;16877;48.810;9.282;2024-03-02T06:03:24;10.97;;;9.43;;
1366;SDS011;16877;48.810;9.282;2024-03-02T06:05:50;10.90;;;9.80;;
1366;SDS011;16877;48.810;9.282;2024-03-02T06:08:17;10.57;;;9.13;;
1366;SDS011;16877;48.810;9.282;2024-03-02T06:10:44;9.80;;;8.80;;
1366;SDS011;16877;48.810;9.282;2024-03-02T06:13:11;10.10;;;9.10;;
1366;SDS011;16877;48.810;9.282;2024-03-02T06:15:37;11.80;;;9.77;;
1366;SDS011;16877;48.810;9.282;2024-03-02T06:18:05;10.90;;;9.37;;
1366;SDS011;16877;48.810;9.282;2024-03-02T06:20:32;10.23;;;9.23;;
1366;SDS011;16877;48.810;9.282;2024-03-02T06:22:59;12.73;;;11.43;;
1366;SDS011;16877;48.810;9.282;2024-03-02T06:25:26;10.63;;;9.47;;
1366;SDS011;16877;48.810;9.282;2024-03-02T06:27:53;12.80;;;9.97;;
1366;SDS011;16877;48.810;9.282;2024-03-02T06:30:20;11.40;;;10.00;;
1366;SDS011;16877;48.810;9.282;2024-03-02T06:32:46;9.83;;;8.83;;
1366;SDS011;16877;48.810;9.282;2024-03-02T06:35:14;10.00;;;8.60;;
1366;SDS011;16877;48.810;9.282;2024-03-02T06:37:41;11.20;;;10.10;;
1366;SDS011;16877;48.810;9.282;2024-03-02T06:40:08;10.70;;;9.57;;
1366;SDS011;16877;48.810;9.282;2024-03-02T06:42:35;10.67;;;9.57;;
1366;SDS011;16877;48.810;9.282;2024-03-02T06:45:02;10.30;;;9.30;;
1366;SDS011;16877;48.810;9.282;2024-03-02T06:47:29;9.80;;;8.73;;
1366;SDS011;16877;48.810;9.282;2024-03-02T06:49:56;11.13;;;10.00;;
1366;SDS011;16877;48.810;9.282;2024-03-02T06:52:24;11.23;;;9.77;;
1366;SDS011;16877;48.810;9.282;2024-03-02T06:54:51;10.80;;;9.53;;
1366;SDS011;16877;48.810;9.282;2024-03-02T06:57:18;10.33;;;9.20;;
1366;SDS011;16877;48.810;9.282;2024-03-02T06:59:45;9.90;;;8.90;;
1366;SDS011;16877;48.810;9.282;2024-03-02T07:02:13;10.13;;;9.13;;
1366;SDS011;16877;48.810;9.282;2024-03-02T07:04:40;13.13;;;9.00;;
1366;SDS011;16877;48.810;9.282;2024-03-02T07:07:07;10.13;;;9.13;;
1366;SDS011;16877;48.810;9.282;2024-03-02T07:09:35;12.23;;;11.03;;
1366;SDS011;16877;48.810;9.282;2024-03-02T07:12:01;9.60;;;8.60;;
1366;SDS011;16877;48.810;9.282;2024-03-02T07:14:28;3.20;;;2.80;;
1366;SDS011;16877;48.810;9.282;2024-03-02T07:17:09;7.23;;;3.33;;
1366;SDS011;16877;48.810;9.282;2024-03-02T07:19:35;4.57;;;3.27;;
1366;SDS011;16877;48.810;9.282;2024-03-02T07:22:05;5.70;;;3.67;;
1366;SDS011;16877;48.810;9.282;2024-03-02T07:24:32;4.87;;;3.60;;
1366;SDS011;16877;48.810;9.282;2024-03-02T07:27:00;3.70;;;2.60;;
1366;SDS011;16877;48.810;9.282;2024-03-02T07:29:27;5.33;;;3.57;;
1366;SDS011;16877;48.810;9.282;2024-03-02T07:31:53;3.60;;;2.83;;
1366;SDS011;16877;48.810;9.282;2024-03-02T07:34:20;3.93;;;3.07;;
1366;SDS011;16877;48.810;9.282;2024-03-02T07:36:46;3.73;;;3.30;;
1366;SDS011;16877;48.810;9.282;2024-03-02T07:39:13;3.80;;;3.27;;
1366;SDS011;16877;48.810;9.282;2024-03-02T07:41:41;4.50;;;3.70;;
1366;SDS011;16877;48.810;9.282;2024-03-02T07:44:10;4.00;;;3.37;;
1366;SDS011;16877;48.810;9.282;2024-03-02T07:46:39;5.40;;;3.13;;
1366;SDS011;16877;48.810;9.282;2024-03-02T07:49:06;3.80;;;3.23;;
1366;SDS011;16877;48.810;9.282;2024-03-02T07:51:33;4.53;;;2.60;;
1366;SDS011;16877;48.810;9.282;2024-03-02T07:53:59;11.30;;;3.23;;
1366;SDS011;16877;48.810;9.282;2024-03-02T07:56:26;4.83;;;2.63;;
1366;SDS011;16877;48.810;9.282;2024-03-02T07:58:53;5.03;;;2.63;;
1366;SDS011;16877;48.810;9.282;2024-03-02T08:01:23;5.10;;;3.37;;
1366;SDS011;16877;48.810;9.282;2024-03-02T08:03:50;5.87;;;3.53;;
1366;SDS011;16877;48.810;9.282;2024-03-02T08:06:17;5.17;;;3.47;;
1366;SDS011;16877;48.810;9.282;2024-03-02T08:08:46;5.83;;;3.53;;
1366;SDS011;16877;48.810;9.282;2024-03-02T08:11:13;7.23;;;3.57;;
1366;SDS011;16877;48.810;9.282;2024-03-02T08:13:39;6.40;;;3.30;;
1366;SDS011;16877;48.810;9.282;2024-03-02T08:16:06;4.93;;;3.03;;
1366;SDS011;16877;48.810;9.282;2024-03-02T08:18:35;6.67;;;3.07;;
1366;SDS011;16877;48.810;9.282;2024-03-02T08:21:02;7.00;;;3.10;;
1366;SDS011;16877;48.810;9.282;2024-03-02T08:23:29;5.33;;;3.60;;
1366;SDS011;16877;48.810;9.282;2024-03-02T08:25:57;5.27;;;4.00;;
1366;SDS011;16877;48.810;9.282;2024-03-02T08:28:23;5.47;;;4.90;;
1366;SDS011;16877;48.810;9.282;2024-03-02T08:30:50;6.20;;;4.70;;
1366;SDS011;16877;48.810;9.282;2024-03-02T08:33:17;6.10;;;5.03;;
1366;SDS011;16877;48.810;9.282;2024-03-02T08:35:45;6.47;;;4.70;;
1366;SDS011;16877;48.810;9.282;2024-03-02T08:38:11;5.57;;;4.70;;
1366;SDS011;16877;48.810;9.282;2024-03-02T08:40:38;5.57;;;4.67;;
1366;SDS011;16877;48.810;9.282;2024-03-02T08:43:05;5.20;;;4.70;;
1366;SDS011;16877;48.810;9.282;2024-03-02T08:45:32;5.57;;;5.03;;
1366;SDS011;16877;48.810;9.282;2024-03-02T08:48:00;5.43;;;4.53;;
1366;SDS011;16877;48.810;9.282;2024-03-02T08:50:27;6.27;;;4.13;;
1366;SDS011;16877;48.810;9.282;2024-03-02T08:52:55;5.03;;;3.87;;
1366;SDS011;16877;48.810;9.282;2024-03-02T08:55:22;4.60;;;4.10;;
1366;SDS011;16877;48.810;9.282;2024-03-02T08:57:48;5.70;;;4.70;;
1366;SDS011;16877;48.810;9.282;2024-03-02T09:00:16;4.43;;;3.87;;
1366;SDS011;16877;48.810;9.282;2024-03-02T09:02:43;5.73;;;4.40;;
1366;SDS011;16877;48.810;9.282;2024-03-02T09:05:10;5.80;;;5.20;;
1366;SDS011;16877;48.810;9.282;2024-03-02T09:07:37;6.10;;;5.50;;
1366;SDS011;16877;48.810;9.282;2024-03-02T09:10:06;6.13;;;4.93;;
1366;SDS011;16877;48.810;9.282;2024-03-02T09:12:33;6.43;;;4.83;;
1366;SDS011;16877;48.810;9.282;2024-03-02T09:15:01;5.77;;;4.97;;
1366;SDS011;16877;48.810;9.282;2024-03-02T09:17:28;4.57;;;3.90;;
1366;SDS011;16877;48.810;9.282;2024-03-02T09:19:55;5.33;;;4.70;;
1366;SDS011;16877;48.810;9.282;2024-03-02T09:22:22;6.03;;;4.43;;
1366;SDS011;16877;48.810;9.282;2024-03-02T09:24:49;5.53;;;4.40;;
1366;SDS011;16877;48.810;9.282;2024-03-02T09:27:17;4.97;;;3.80;;
1366;SDS011;16877;48.810;9.282;2024-03-02T09:29:43;4.50;;;3.90;;
1366;SDS011;16877;48.810;9.282;2024-03-02T09:32:12;4.60;;;3.47;;
1366;SDS011;16877;48.810;9.282;2024-03-02T09:34:39;4.10;;;3.33;;
1366;SDS011;16877;48.810;9.282;2024-03-02T09:37:06;3.60;;;2.90;;
1366;SDS011;16877;48.810;9.282;2024-03-02T09:39:33;5.60;;;2.70;;
1366;SDS011;16877;48.810;9.282;2024-03-02T09:42:00;2.90;;;2.33;;
1366;SDS011;16877;48.810;9.282;2024-03-02T09:44:29;3.20;;;2.03;;
1366;SDS011;16877;48.810;9.282;2024-03-02T09:46:56;2.50;;;1.90;;
1366;SDS011;16877;48.810;9.282;2024-03-02T09:49:22;3.20;;;2.30;;
1366;SDS011;16877;48.810;9.282;2024-03-02T09:51:49;4.20;;;1.80;;
1366;SDS011;16877;48.810;9.282;2024-03-02T09:54:16;2.50;;;1.73;;
1366;SDS011;16877;48.810;9.282;2024-03-02T09:56:43;2.50;;;1.80;;
1366;SDS011;16877;48.810;9.282;2024-03-02T09:59:10;2.60;;;1.50;;
1366;SDS011;16877;48.810;9.282;2024-03-02T10:01:39;3.20;;;1.53;;
1366;SDS011;16877;48.810;9.282;2024-03-02T10:04:21;3.20;;;1.57;;
1366;SDS011;16877;48.810;9.282;2024-03-02T10:06:48;2.30;;;1.50;;
1366;SDS011;16877;48.810;9.282;2024-03-02T10:09:18;2.77;;;2.10;;
1366;SDS011;16877;48.810;9.282;2024-03-02T10:11:53;2.30;;;1.50;;
1366;SDS011;16877;48.810;9.282;2024-03-02T10:14:30;2.20;;;1.30;;
1366;SDS011;16877;48.810;9.282;2024-03-02T10:17:01;3.00;;;1.40;;
1366;SDS011;16877;48.810;9.282;2024-03-02T10:19:29;3.07;;;1.93;;
1366;SDS011;16877;48.810;9.282;2024-03-02T10:21:58;3.67;;;2.27;;
1366;SDS011;16877;48.810;9.282;2024-03-02T10:24:25;2.57;;;1.50;;
1366;SDS011;16877;48.810;9.282;2024-03-02T10:26:52;2.30;;;1.20;;
1366;SDS011;16877;48.810;9.282;2024-03-02T10:29:19;2.97;;;1.30;;
1366;SDS011;16877;48.810;9.282;2024-03-02T10:31:46;2.63;;;1.63;;
1366;SDS011;16877;48.810;9.282;2024-03-02T10:34:14;2.90;;;1.30;;
1366;SDS011;16877;48.810;9.282;2024-03-02T10:36:42;2.20;;;1.07;;
1366;SDS011;16877;48.810;9.282;2024-03-02T10:39:11;2.70;;;1.40;;
1366;SDS011;16877;48.810;9.282;2024-03-02T10:41:39;2.87;;;1.53;;
1366;SDS011;16877;48.810;9.282;2024-03-02T10:44:07;3.40;;;1.67;;
1366;SDS011;16877;48.810;9.282;2024-03-02T10:46:35;2.33;;;0.93;;
1366;SDS011;16877;48.810;9.282;2024-03-02T10:49:03;2.30;;;1.20;;
1366;SDS011;16877;48.810;9.282;2024-03-02T10:51:33;3.70;;;1.30;;
1366;SDS011;16877;48.810;9.282;2024-03-02T10:54:01;2.67;;;1.47;;
1366;SDS011;16877;48.810;9.282;2024-03-02T10:56:29;2.70;;;1.40;;
1366;SDS011;16877;48.810;9.282;2024-03-02T10:59:01;2.40;;;1.20;;
1366;SDS011;16877;48.810;9.282;2024-03-02T11:01:29;3.53;;;1.47;;
1366;SDS011;16877;48.810;9.282;2024-03-02T11:03:58;2.70;;;1.50;;
1366;SDS011;16877;48.810;9.282;2024-03-02T11:06:28;2.20;;;1.23;;
1366;SDS011;16877;48.810;9.282;2024-03-02T11:08:59;3.37;;;1.30;;
1366;SDS011;16877;48.810;9.282;2024-03-02T11:11:29;3.27;;;1.87;;
1366;SDS011;16877;48.810;9.282;2024-03-02T11:14:00;4.70;;;1.70;;
1366;SDS011;16877;48.810;9.282;2024-03-02T11:16:34;2.70;;;1.80;;
1366;SDS011;16877;48.810;9.282;2024-03-02T11:19:04;3.37;;;2.47;;
1366;SDS011;16877;48.810;9.282;2024-03-02T11:21:32;4.40;;;2.00;;
1366;SDS011;16877;48.810;9.282;2024-03-02T11:24:01;4.33;;;1.90;;
1366;SDS011;16877;48.810;9.282;2024-03-02T11:26:57;3.30;;;1.70;;
1366;SDS011;16877;48.810;9.282;2024-03-02T11:32:13;2.83;;;1.57;;
1366;SDS011;16877;48.810;9.282;2024-03-02T11:34:45;2.77;;;1.67;;
1366;SDS011;16877;48.810;9.282;2024-03-02T11:37:12;3.03;;;1.80;;
1366;SDS011;16877;48.810;9.282;2024-03-02T11:39:41;2.50;;;1.50;;
1366;SDS011;16877;48.810;9.282;2024-03-02T11:42:08;3.60;;;2.27;;
1366;SDS011;16877;48.810;9.282;2024-03-02T11:44:36;2.43;;;1.60;;
1366;SDS011;16877;48.810;9.282;2024-03-02T11:47:05;3.40;;;2.20;;
1366;SDS011;16877;48.810;9.282;2024-03-02T11:49:36;2.70;;;1.33;;
1366;SDS011;16877;48.810;9.282;2024-03-02T11:52:05;2.77;;;1.50;;
1366;SDS011;16877;48.810;9.282;2024-03-02T11:54:33;2.70;;;1.90;;
1366;SDS011;16877;48.810;9.282;2024-03-02T11:57:02;2.73;;;1.83;;
1366;SDS011;16877;48.810;9.282;2024-03-02T11:59:29;2.70;;;1.70;;
1366;SDS011;16877;48.810;9.282;2024-03-02T12:01:56;2.50;;;1.43;;
1366;SDS011;16877;48.810;9.282;2024-03-02T12:04:24;3.50;;;1.60;;
1366;SDS011;16877;48.810;9.282;2024-03-02T12:06:54;2.30;;;1.20;;
1366;SDS011;16877;48.810;9.282;2024-03-02T12:09:21;4.80;;;1.63;;
1366;SDS011;16877;48.810;9.282;2024-03-02T12:11:48;4.37;;;1.50;;
1366;SDS011;16877;48.810;9.282;2024-03-02T12:14:30;26.73;;;2.33;;
1366;SDS011;16877;48.810;9.282;2024-03-02T12:16:56;2.50;;;1.40;;
1366;SDS011;16877;48.810;9.282;2024-03-02T12:19:23;3.00;;;1.20;;
1366;SDS011;16877;48.810;9.282;2024-03-02T12:21:50;2.87;;;1.17;;
1366;SDS011;16877;48.810;9.282;2024-03-02T12:24:17;3.60;;;1.43;;
1366;SDS011;16877;48.810;9.282;2024-03-02T12:26:44;2.47;;;1.13;;
1366;SDS011;16877;48.810;9.282;2024-03-02T12:29:13;2.03;;;0.90;;
1366;SDS011;16877;48.810;9.282;2024-03-02T12:31:41;3.10;;;1.20;;
1366;SDS011;16877;48.810;9.282;2024-03-02T12:34:10;2.80;;;1.30;;
1366;SDS011;16877;48.810;9.282;2024-03-02T12:36:38;2.90;;;1.40;;
1366;SDS011;16877;48.810;9.282;2024-03-02T12:39:06;2.40;;;1.00;;
1366;SDS011;16877;48.810;9.282;2024-03-02T12:41:33;2.20;;;0.97;;
1366;SDS011;16877;48.810;9.282;2024-03-02T12:44:02;2.20;;;1.00;;
1366;SDS011;16877;48.810;9.282;2024-03-02T12:46:30;2.30;;;1.00;;
1366;SDS011;16877;48.810;9.282;2024-03-02T12:48:57;2.47;;;1.10;;
1366;SDS011;16877;48.810;9.282;2024-03-02T12:51:24;2.30;;;1.00;;
1366;SDS011;16877;48.810;9.282;2024-03-02T12:53:53;2.60;;;1.07;;
1366;SDS011;16877;48.810;9.282;2024-03-02T12:56:20;2.30;;;1.07;;
1366;SDS011;16877;48.810;9.282;2024-03-02T12:58:47;2.23;;;1.33;;
1366;SDS011;16877;48.810;9.282;2024-03-02T13:01:14;2.40;;;1.00;;
1366;SDS011;16877;48.810;9.282;2024-03-02T13:03:45;2.23;;;0.93;;
1366;SDS011;16877;48.810;9.282;2024-03-02T13:06:16;2.50;;;0.73;;
1366;SDS011;16877;48.810;9.282;2024-03-02T13:08:43;2.23;;;0.63;;
1366;SDS011;16877;48.810;9.282;2024-03-02T13:11:11;1.80;;;0.70;;
1366;SDS011;16877;48.810;9.282;2024-03-02T13:13:38;2.13;;;0.73;;
1366;SDS011;16877;48.810;9.282;2024-03-02T13:16:07;2.10;;;0.90;;
1366;SDS011;16877;48.810;9.282;2024-03-02T13:18:35;2.20;;;1.10;;
1366;SDS011;16877;48.810;9.282;2024-03-02T13:21:03;2.23;;;1.23;;
1366;SDS011;16877;48.810;9.282;2024-03-02T13:23:30;1.90;;;0.80;;
1366;SDS011;16877;48.810;9.282;2024-03-02T13:25:57;3.43;;;1.00;;
1366;SDS011;16877;48.810;9.282;2024-03-02T13:28:24;1.90;;;0.80;;
1366;SDS011;16877;48.810;9.282;2024-03-02T13:30:51;2.03;;;1.00;;
1366;SDS011;16877;48.810;9.282;2024-03-02T13:33:17;2.13;;;1.07;;
1366;SDS011;16877;48.810;9.282;2024-03-02T13:35:47;2.40;;;1.10;;
1366;SDS011;16877;48.810;9.282;2024-03-02T13:38:16;3.17;;;1.23;;
1366;SDS011;16877;48.810;9.282;2024-03-02T13:40:42;2.10;;;0.80;;
1366;SDS011;16877;48.810;9.282;2024-03-02T13:43:09;2.43;;;1.20;;
1366;SDS011;16877;48.810;9.282;2024-03-02T13:45:36;2.20;;;0.90;;
1366;SDS011;16877;48.810;9.282;2024-03-02T13:48:04;2.30;;;1.00;;
1366;SDS011;16877;48.810;9.282;2024-03-02T13:50:32;2.40;;;1.20;;
1366;SDS011;16877;48.810;9.282;2024-03-02T13:52:58;2.30;;;1.20;;
1366;SDS011;16877;48.810;9.282;2024-03-02T13:55:26;2.83;;;1.10;;
1366;SDS011;16877;48.810;9.282;2024-03-02T13:57:53;2.00;;;0.80;;
1366;SDS011;16877;48.810;9.282;2024-03-02T14:00:20;2.20;;;1.10;;
1366;SDS011;16877;48.810;9.282;2024-03-02T14:02:47;2.40;;;1.37;;
1366;SDS011;16877;48.810;9.282;2024-03-02T14:05:15;3.07;;;1.20;;
1366;SDS011;16877;48.810;9.282;2024-03-02T14:07:41;2.30;;;1.10;;
1366;SDS011;16877;48.810;9.282;2024-03-02T14:10:09;2.90;;;1.50;;
1366;SDS011;16877;48.810;9.282;2024-03-02T14:12:37;2.57;;;1.00;;
1366;SDS011;16877;48.810;9.282;2024-03-02T14:15:04;2.30;;;1.20;;
1366;SDS011;16877;48.810;9.282;2024-03-02T14:17:31;3.17;;;1.30;;
1366;SDS011;16877;48.810;9.282;2024-03-02T14:19:58;2.73;;;1.40;;
1366;SDS011;16877;48.810;9.282;2024-03-02T14:22:25;4.80;;;1.30;;
1366;SDS011;16877;48.810;9.282;2024-03-02T14:24:51;3.00;;;1.50;;
1366;SDS011;16877;48.810;9.282;2024-03-02T14:27:18;2.30;;;1.27;;
1366;SDS011;16877;48.810;9.282;2024-03-02T14:29:45;3.97;;;1.33;;
1366;SDS011;16877;48.810;9.282;2024-03-02T14:32:12;2.40;;;1.37;;
1366;SDS011;16877;48.810;9.282;2024-03-02T14:34:38;2.10;;;0.97;;
1366;SDS011;16877;48.810;9.282;2024-03-02T14:37:05;2.60;;;0.93;;
1366;SDS011;16877;48.810;9.282;2024-03-02T14:39:32;8.47;;;1.57;;
1366;SDS011;16877;48.810;9.282;2024-03-02T14:41:59;2.50;;;1.30;;
1366;SDS011;16877;48.810;9.282;2024-03-02T14:44:26;2.57;;;1.00;;
1366;SDS011;16877;48.810;9.282;2024-03-02T14:46:54;2.53;;;1.23;;
1366;SDS011;16877;48.810;9.282;2024-03-02T14:49:23;2.43;;;1.17;;
1366;SDS011;16877;48.810;9.282;2024-03-02T14:51:50;2.37;;;1.07;;
1366;SDS011;16877;48.810;9.282;2024-03-02T14:54:16;52.93;;;21.67;;
1366;SDS011;16877;48.810;9.282;2024-03-02T14:56:43;51.67;;;22.00;;
1366;SDS011;16877;48.810;9.282;2024-03-02T14:59:10;61.13;;;27.63;;
1366;SDS011;16877;48.810;9.282;2024-03-02T15:01:36;31.80;;;16.83;;
1366;SDS011;16877;48.810;9.282;2024-03-02T15:04:05;15.63;;;8.30;;